createdAt,value
2023-05-22T00:02:16.829Z,100130.13
2023-05-22T00:04:46.797Z,100134.75
2023-05-22T00:07:14.364Z,100132.59
2023-05-22T00:09:41.923Z,100132.56
2023-05-22T00:12:09.707Z,100128.13
2023-05-22T00:14:37.286Z,100130.94
2023-05-22T00:17:05.590Z,100127.59
2023-05-22T00:19:33.391Z,100129.69
2023-05-22T00:22:02.404Z,100129.44
2023-05-22T00:24:29.908Z,100124.47
2023-05-22T00:26:57.435Z,100124.47
2023-05-22T00:29:24.991Z,100117.19
2023-05-22T00:31:52.545Z,100125.25
2023-05-22T00:34:20.404Z,100122.69
2023-05-22T00:36:47.996Z,100119.31
2023-05-22T00:39:17.046Z,100121.84
2023-05-22T00:41:44.655Z,100125.25
2023-05-22T00:44:12.822Z,100120.28
2023-05-22T00:46:40.974Z,100126.91
2023-05-22T00:49:08.600Z,100126.88
2023-05-22T00:51:36.137Z,100120.28
2023-05-22T00:54:03.646Z,100125.44
2023-05-22T00:56:32.674Z,100122.81
2023-05-22T00:59:00.385Z,100116.34
2023-05-22T01:01:33.368Z,100122.16
2023-05-22T01:04:01.855Z,100122.28
2023-05-22T01:06:32.139Z,100124.63
2023-05-22T01:08:59.766Z,100116.22
2023-05-22T01:11:32.712Z,100120.50
2023-05-22T01:14:08.421Z,100121.75
2023-05-22T01:16:40.458Z,100120.75
2023-05-22T01:19:15.996Z,100121.63
2023-05-22T01:21:49.111Z,100119.34
2023-05-22T01:24:51.877Z,100114.97
2023-05-22T01:27:29.176Z,100124.00
2023-05-22T01:30:09.482Z,100116.81
2023-05-22T01:32:39.634Z,100114.78
2023-05-22T01:35:09.128Z,100116.06
2023-05-22T01:37:37.311Z,100110.94
2023-05-22T01:40:07.443Z,100116.91
2023-05-22T01:42:35.534Z,100114.56
2023-05-22T01:45:03.298Z,100114.25
2023-05-22T01:47:31.463Z,100106.66
2023-05-22T01:50:00.504Z,100117.19
2023-05-22T01:52:35.566Z,100115.56
2023-05-22T01:55:07.611Z,100118.94
2023-05-22T01:57:42.315Z,100118.47
2023-05-22T02:00:12.427Z,100119.19
2023-05-22T02:02:41.382Z,100113.53
2023-05-22T02:05:12.226Z,100123.75
2023-05-22T02:07:41.643Z,100122.50
2023-05-22T02:10:11.363Z,100118.19
2023-05-22T02:12:39.123Z,100125.19
2023-05-22T02:15:08.163Z,100124.97
2023-05-22T02:17:40.263Z,100118.81
2023-05-22T02:20:14.433Z,100118.84
2023-05-22T02:22:43.633Z,100110.78
2023-05-22T02:25:14.356Z,100107.19
2023-05-22T02:27:42.896Z,100112.25
2023-05-22T02:30:11.120Z,100100.97
2023-05-22T02:32:39.609Z,100098.81
2023-05-22T02:35:07.633Z,100103.69
2023-05-22T02:37:36.699Z,100103.66
2023-05-22T02:40:06.096Z,100097.09
2023-05-22T02:42:33.716Z,100100.53
2023-05-22T02:45:01.366Z,100095.06
2023-05-22T02:47:28.997Z,100090.00
2023-05-22T02:49:57.822Z,100085.00
2023-05-22T02:52:25.809Z,100084.69
2023-05-22T02:54:54.652Z,100081.34
2023-05-22T02:57:22.168Z,100080.53
2023-05-22T02:59:49.668Z,100080.66
2023-05-22T03:02:17.780Z,100074.97
2023-05-22T03:04:45.384Z,100083.13
2023-05-22T03:07:13.278Z,100078.16
2023-05-22T03:09:40.805Z,100072.06
2023-05-22T03:12:10.884Z,100079.78
2023-05-22T03:14:38.428Z,100082.66
2023-05-22T03:17:06.320Z,100085.25
2023-05-22T03:19:33.888Z,100084.53
2023-05-22T03:22:01.469Z,100082.41
2023-05-22T03:24:29.020Z,100082.84
2023-05-22T03:26:56.529Z,100086.66
2023-05-22T03:29:25.455Z,100089.56
2023-05-22T03:31:54.668Z,100093.91
2023-05-22T03:34:22.684Z,100092.16
2023-05-22T03:36:50.716Z,100091.94
2023-05-22T03:39:18.225Z,100087.84
2023-05-22T03:41:45.716Z,100093.69
2023-05-22T03:44:13.261Z,100092.09
2023-05-22T03:46:42.126Z,100092.41
2023-05-22T03:49:09.655Z,100099.72
2023-05-22T03:51:37.222Z,100094.56
2023-05-22T03:54:05.160Z,100103.00
2023-05-22T03:56:32.666Z,100093.38
2023-05-22T03:59:00.554Z,100096.16
2023-05-22T04:01:28.101Z,100091.06
2023-05-22T04:03:56.955Z,100093.38
2023-05-22T04:06:25.609Z,100096.38
2023-05-22T04:08:53.206Z,100088.69
2023-05-22T04:11:22.826Z,100087.47
2023-05-22T04:13:50.561Z,100081.19
2023-05-22T04:16:18.268Z,100080.81
2023-05-22T04:18:45.889Z,100082.34
2023-05-22T04:21:14.761Z,100085.19
2023-05-22T04:23:43.374Z,100095.25
2023-05-22T04:26:10.930Z,100091.94
2023-05-22T04:28:39.189Z,100097.13
2023-05-22T04:31:07.488Z,100098.91
2023-05-22T04:33:35.343Z,100097.81
2023-05-22T04:36:03.224Z,100092.50
2023-05-22T04:38:36.452Z,100088.19
2023-05-22T04:41:04.358Z,100092.16
2023-05-22T04:43:32.422Z,100093.91
2023-05-22T04:46:00.708Z,100093.06
2023-05-22T04:48:28.239Z,100094.47
2023-05-22T04:50:57.437Z,100099.66
2023-05-22T04:53:24.987Z,100093.38
2023-05-22T04:55:53.822Z,100095.97
2023-05-22T04:58:21.859Z,100092.66
2023-05-22T05:00:49.411Z,100091.31
2023-05-22T05:03:17.168Z,100093.38
2023-05-22T05:05:44.854Z,100097.66
2023-05-22T05:08:12.390Z,100093.63
2023-05-22T05:10:40.382Z,100090.41
2023-05-22T05:13:09.428Z,100093.00
2023-05-22T05:15:36.920Z,100089.09
2023-05-22T05:18:04.551Z,100085.66
2023-05-22T05:20:32.080Z,100090.69
2023-05-22T05:22:59.615Z,100091.47
2023-05-22T05:25:27.130Z,100095.22
2023-05-22T05:27:54.664Z,100094.66
2023-05-22T05:30:23.484Z,100087.16
2023-05-22T05:32:51.262Z,100089.69
2023-05-22T05:35:19.083Z,100096.38
2023-05-22T05:37:46.577Z,100100.22
2023-05-22T05:40:14.964Z,100092.84
2023-05-22T05:42:42.480Z,100100.28
2023-05-22T05:45:11.567Z,100097.41
2023-05-22T05:47:41.316Z,100096.94
2023-05-22T05:50:09.660Z,100099.09
2023-05-22T05:52:37.190Z,100092.31
2023-05-22T05:55:05.101Z,100092.53
2023-05-22T05:57:32.700Z,100101.31
2023-05-22T06:00:00.381Z,100095.00
2023-05-22T06:02:28.143Z,100099.53
2023-05-22T06:04:57.035Z,100098.66
2023-05-22T06:07:24.637Z,100094.81
2023-05-22T06:09:52.568Z,100095.97
2023-05-22T06:12:20.086Z,100099.09
2023-05-22T06:14:47.620Z,100086.50
2023-05-22T06:17:15.461Z,100085.97
2023-05-22T06:19:43.183Z,100091.84
2023-05-22T06:22:12.202Z,100090.97
2023-05-22T06:24:39.808Z,100083.09
2023-05-22T06:27:07.846Z,100079.84
2023-05-22T06:29:35.366Z,100084.16
2023-05-22T06:32:02.949Z,100086.03
2023-05-22T06:34:30.519Z,100085.25
2023-05-22T06:36:58.061Z,100085.25
2023-05-22T06:39:27.063Z,100090.19
2023-05-22T06:41:54.569Z,100085.63
2023-05-22T06:44:22.086Z,100081.88
2023-05-22T06:46:49.619Z,100076.56
2023-05-22T06:49:17.127Z,100075.81
2023-05-22T06:51:44.821Z,100080.13
2023-05-22T06:54:13.742Z,100079.28
2023-05-22T06:56:42.779Z,100079.53
2023-05-22T06:59:11.686Z,100076.63
2023-05-22T07:01:39.386Z,100080.59
2023-05-22T07:04:08.941Z,100088.47
2023-05-22T07:06:38.892Z,100082.25
2023-05-22T07:09:07.067Z,100085.78
2023-05-22T07:11:35.553Z,100087.31
2023-05-22T07:14:04.482Z,100079.97
2023-05-22T07:16:32.085Z,100086.94
2023-05-22T07:18:59.636Z,100077.69
2023-05-22T07:21:27.181Z,100085.22
2023-05-22T07:23:54.795Z,100082.16
2023-05-22T07:26:22.584Z,100083.78
2023-05-22T07:28:50.415Z,100086.63
2023-05-22T07:31:19.327Z,100075.22
2023-05-22T07:33:47.038Z,100079.91
2023-05-22T07:36:14.531Z,100074.00
2023-05-22T07:38:42.168Z,100078.66
2023-05-22T07:41:09.663Z,100070.44
2023-05-22T07:43:37.404Z,100069.97
2023-05-22T07:46:06.124Z,100068.09
2023-05-22T07:48:35.049Z,100072.94
2023-05-22T07:51:03.700Z,100073.03
2023-05-22T07:53:31.728Z,100073.91
2023-05-22T07:55:59.265Z,100067.63
2023-05-22T07:58:26.886Z,100070.03
2023-05-22T08:00:54.506Z,100070.56
2023-05-22T08:03:23.982Z,100080.75
2023-05-22T08:05:53.255Z,100078.59
2023-05-22T08:08:20.832Z,100076.19
2023-05-22T08:11:02.887Z,100077.06
2023-05-22T08:13:31.536Z,100082.03
2023-05-22T08:16:00.325Z,100079.22
2023-05-22T08:18:29.284Z,100083.00
2023-05-22T08:21:00.138Z,100080.25
2023-05-22T08:23:27.691Z,100080.31
2023-05-22T08:25:55.229Z,100072.81
2023-05-22T08:28:22.728Z,100078.38
2023-05-22T08:30:50.277Z,100066.13
2023-05-22T08:33:19.654Z,100070.97
2023-05-22T08:35:47.345Z,100067.38
2023-05-22T08:38:16.360Z,100063.19
2023-05-22T08:40:46.620Z,100070.97
2023-05-22T08:43:15.481Z,100068.38
2023-05-22T08:45:44.306Z,100069.97
2023-05-22T08:48:14.008Z,100059.19
2023-05-22T08:50:43.494Z,100062.38
2023-05-22T08:53:14.855Z,100070.63
2023-05-22T08:55:43.753Z,100057.38
2023-05-22T08:58:12.259Z,100054.22
2023-05-22T09:00:40.086Z,100050.75
2023-05-22T09:03:10.170Z,100053.56
2023-05-22T09:05:39.191Z,100042.97
2023-05-22T09:08:19.079Z,100041.91
2023-05-22T09:10:49.921Z,100036.97
2023-05-22T09:13:26.115Z,100042.38
2023-05-22T09:15:53.878Z,100038.94
2023-05-22T09:18:22.056Z,100033.44
2023-05-22T09:20:49.621Z,100042.38
2023-05-22T09:23:19.711Z,100032.78
2023-05-22T09:25:48.750Z,100037.28
2023-05-22T09:28:16.287Z,100033.06
2023-05-22T09:30:43.985Z,100030.13
2023-05-22T09:33:14.149Z,100021.00
2023-05-22T09:35:42.147Z,100024.22
2023-05-22T09:38:11.457Z,100021.34
2023-05-22T09:40:40.651Z,100014.97
2023-05-22T09:43:10.421Z,100018.16
2023-05-22T09:45:38.894Z,100017.56
2023-05-22T09:48:07.419Z,100015.78
2023-05-22T09:50:34.976Z,100018.00
2023-05-22T09:53:03.872Z,100020.16
2023-05-22T09:55:32.060Z,100014.34
2023-05-22T09:58:04.276Z,100013.47
2023-05-22T10:00:34.526Z,100008.31
2023-05-22T10:03:08.162Z,100014.50
2023-05-22T10:05:38.032Z,100008.84
2023-05-22T10:08:10.383Z,100005.53
2023-05-22T10:10:39.462Z,100006.47
2023-05-22T10:13:07.789Z,99996.38
2023-05-22T10:15:37.025Z,100004.16
2023-05-22T10:18:05.826Z,100001.94
2023-05-22T10:20:33.662Z,99996.47
2023-05-22T10:23:03.818Z,99994.69
2023-05-22T10:25:31.496Z,99991.94
2023-05-22T10:27:59.612Z,99987.84
2023-05-22T10:30:31.026Z,99987.59
2023-05-22T10:33:04.892Z,99993.63
2023-05-22T10:35:39.841Z,99985.03
2023-05-22T10:38:21.774Z,99977.09
2023-05-22T10:40:49.714Z,99973.13
2023-05-22T10:43:17.291Z,99975.63
2023-05-22T10:45:46.000Z,99980.44
2023-05-22T10:48:14.910Z,99978.16
2023-05-22T10:50:52.781Z,99974.13
2023-05-22T10:53:22.098Z,99967.13
2023-05-22T10:55:50.130Z,99968.28
2023-05-22T10:58:18.097Z,99972.03
2023-05-22T11:00:46.112Z,99968.34
2023-05-22T11:03:18.401Z,99958.59
2023-05-22T11:05:53.737Z,99966.41
2023-05-22T11:08:38.334Z,99968.91
2023-05-22T11:11:13.836Z,99953.06
2023-05-22T11:13:42.467Z,99963.47
2023-05-22T11:16:11.294Z,99956.56
2023-05-22T11:18:40.286Z,99956.31
2023-05-22T11:21:11.220Z,99950.81
2023-05-22T11:23:39.076Z,99951.31
2023-05-22T11:26:25.564Z,99949.59
2023-05-22T11:28:55.542Z,99948.22
2023-05-22T11:31:24.160Z,99952.84
2023-05-22T11:33:54.189Z,99940.69
2023-05-22T11:36:21.912Z,99941.13
2023-05-22T11:38:49.563Z,99933.69
2023-05-22T11:41:17.160Z,99927.75
2023-05-22T11:43:45.199Z,99933.72
2023-05-22T11:46:14.096Z,99932.94
2023-05-22T11:48:42.099Z,99917.88
2023-05-22T11:51:11.168Z,99926.31
2023-05-22T11:53:38.711Z,99923.28
2023-05-22T11:56:06.877Z,99920.69
2023-05-22T11:58:34.933Z,99912.50
2023-05-22T12:01:03.356Z,99918.81
2023-05-22T12:03:31.591Z,99916.25
2023-05-22T12:05:59.868Z,99920.53
2023-05-22T12:08:28.780Z,99912.56
2023-05-22T12:10:56.291Z,99914.41
2023-05-22T12:13:25.121Z,99906.13
2023-05-22T12:15:54.298Z,99906.22
2023-05-22T12:18:21.902Z,99907.19
2023-05-22T12:20:54.320Z,99903.72
2023-05-22T12:23:26.181Z,99903.84
2023-05-22T12:26:03.788Z,99910.06
2023-05-22T12:28:32.918Z,99902.19
2023-05-22T12:31:00.614Z,99907.44
2023-05-22T12:33:28.833Z,99908.38
2023-05-22T12:35:58.457Z,99903.84
2023-05-22T12:38:27.494Z,99896.50
2023-05-22T12:40:56.003Z,99899.69
2023-05-22T12:43:29.465Z,99898.63
2023-05-22T12:45:57.401Z,99896.22
2023-05-22T12:48:24.936Z,99896.78
2023-05-22T12:50:52.475Z,99892.00
2023-05-22T12:53:21.862Z,99888.41
2023-05-22T12:55:49.671Z,99892.34
2023-05-22T12:58:17.352Z,99887.78
2023-05-22T13:00:46.175Z,99890.81
2023-05-22T13:03:13.768Z,99881.03
2023-05-22T13:05:41.649Z,99886.78
2023-05-22T13:08:09.651Z,99874.00
2023-05-22T13:10:38.414Z,99884.88
2023-05-22T13:13:05.985Z,99887.44
2023-05-22T13:15:36.068Z,99878.59
2023-05-22T13:18:04.995Z,99870.50
2023-05-22T13:20:32.654Z,99873.94
2023-05-22T13:23:00.189Z,99880.84
2023-05-22T13:25:27.702Z,99881.75
2023-05-22T13:27:55.562Z,99877.34
2023-05-22T13:30:23.129Z,99874.94
2023-05-22T13:32:50.714Z,99867.47
2023-05-22T13:35:19.764Z,99864.91
2023-05-22T13:37:47.292Z,99869.84
2023-05-22T13:40:15.976Z,99865.31
2023-05-22T13:42:43.508Z,99863.09
2023-05-22T13:45:12.336Z,99859.81
2023-05-22T13:47:40.114Z,99858.66
2023-05-22T13:50:09.538Z,99857.22
2023-05-22T13:52:39.063Z,99854.50
2023-05-22T13:55:07.336Z,99848.19
2023-05-22T13:57:35.096Z,99848.16
2023-05-22T14:00:02.604Z,99847.56
2023-05-22T14:02:30.299Z,99848.34
2023-05-22T14:04:57.868Z,99844.97
2023-05-22T14:07:25.498Z,99845.47
2023-05-22T14:09:54.372Z,99840.88
2023-05-22T14:12:21.947Z,99837.63
2023-05-22T14:14:49.450Z,99831.72
2023-05-22T14:17:16.999Z,99830.88
2023-05-22T14:19:44.539Z,99832.72
2023-05-22T14:22:12.137Z,99835.63
2023-05-22T14:24:39.721Z,99828.69
2023-05-22T14:27:08.596Z,99831.28
2023-05-22T14:29:36.167Z,99822.31
2023-05-22T14:32:05.563Z,99829.88
2023-05-22T14:34:33.093Z,99817.53
2023-05-22T14:37:00.656Z,99810.88
2023-05-22T14:39:28.915Z,99804.38
2023-05-22T14:41:59.578Z,99797.28
2023-05-22T14:44:28.421Z,99791.63
2023-05-22T14:46:55.955Z,99787.41
2023-05-22T14:49:23.479Z,99790.00
2023-05-22T14:51:51.027Z,99785.50
2023-05-22T14:54:20.266Z,99782.22
2023-05-22T14:56:47.829Z,99785.66
2023-05-22T14:59:15.406Z,99779.19
2023-05-22T15:01:44.504Z,99778.44
2023-05-22T15:04:12.089Z,99771.50
2023-05-22T15:06:39.734Z,99768.69
2023-05-22T15:09:07.272Z,99770.75
2023-05-22T15:11:34.850Z,99761.69
2023-05-22T15:14:02.372Z,99762.22
2023-05-22T15:16:30.013Z,99765.91
2023-05-22T15:18:58.943Z,99756.91
2023-05-22T15:21:26.630Z,99761.44
2023-05-22T15:23:54.187Z,99757.97
2023-05-22T15:26:22.298Z,99749.81
2023-05-22T15:28:49.796Z,99756.72
2023-05-22T15:31:17.362Z,99745.72
2023-05-22T15:33:46.462Z,99736.66
2023-05-22T15:36:15.337Z,99745.75
2023-05-22T15:38:42.875Z,99740.47
2023-05-22T15:41:10.418Z,99731.72
2023-05-22T15:43:38.038Z,99737.13
2023-05-22T15:46:05.609Z,99727.13
2023-05-22T15:48:33.270Z,99733.06
2023-05-22T15:51:00.869Z,99732.47
2023-05-22T15:53:29.706Z,99729.84
2023-05-22T15:55:57.224Z,99718.53
2023-05-22T15:58:24.768Z,99718.88
2023-05-22T16:00:52.305Z,99712.69
2023-05-22T16:03:19.922Z,99712.63
2023-05-22T16:05:47.811Z,99725.28
2023-05-22T16:08:15.964Z,99712.16
2023-05-22T16:10:46.971Z,99712.28
2023-05-22T16:13:14.944Z,99718.50
2023-05-22T16:15:44.626Z,99721.28
2023-05-22T16:18:12.865Z,99715.09
2023-05-22T16:20:40.527Z,99719.63
2023-05-22T16:23:08.064Z,99725.28
2023-05-22T16:25:35.612Z,99730.22
2023-05-22T16:28:05.573Z,99730.06
2023-05-22T16:30:33.114Z,99724.78
2023-05-22T16:33:00.721Z,99727.13
2023-05-22T16:35:28.409Z,99730.28
2023-05-22T16:37:55.932Z,99725.56
2023-05-22T16:40:23.436Z,99723.03
2023-05-22T16:42:51.676Z,99726.47
2023-05-22T16:45:20.551Z,99718.22
2023-05-22T16:47:48.105Z,99716.19
2023-05-22T16:50:15.792Z,99717.84
2023-05-22T16:52:43.308Z,99718.16
2023-05-22T16:55:11.238Z,99711.44
2023-05-22T16:57:39.223Z,99719.34
2023-05-22T17:00:10.735Z,99715.69
2023-05-22T17:02:39.787Z,99710.47
2023-05-22T17:05:08.296Z,99715.59
2023-05-22T17:07:35.786Z,99715.50
2023-05-22T17:10:07.293Z,99708.91
2023-05-22T17:12:34.921Z,99714.31
2023-05-22T17:15:02.449Z,99711.00
2023-05-22T17:17:30.029Z,99710.69
2023-05-22T17:19:59.543Z,99704.16
2023-05-22T17:22:27.063Z,99700.13
2023-05-22T17:24:54.596Z,99696.81
2023-05-22T17:27:34.984Z,99693.81
2023-05-22T17:30:06.896Z,99690.81
2023-05-22T17:32:34.840Z,99690.66
2023-05-22T17:35:05.996Z,99693.38
2023-05-22T17:37:33.522Z,99697.16
2023-05-22T17:40:01.185Z,99694.66
2023-05-22T17:42:28.869Z,99697.13
2023-05-22T17:44:56.467Z,99688.91
2023-05-22T17:47:23.993Z,99691.13
2023-05-22T17:49:51.570Z,99691.22
2023-05-22T17:52:20.428Z,99697.56
2023-05-22T17:54:49.830Z,99683.53
2023-05-22T17:57:17.369Z,99685.97
2023-05-22T17:59:44.990Z,99682.94
2023-05-22T18:02:12.523Z,99687.31
2023-05-22T18:04:40.659Z,99686.59
2023-05-22T18:07:08.221Z,99687.47
2023-05-22T18:09:37.062Z,99688.44
2023-05-22T18:12:04.860Z,99680.16
2023-05-22T18:14:32.402Z,99679.13
2023-05-22T18:16:59.935Z,99691.47
2023-05-22T18:19:27.528Z,99687.31
2023-05-22T18:21:55.585Z,99688.13
2023-05-22T18:24:25.072Z,99691.22
2023-05-22T18:26:54.799Z,99691.03
2023-05-22T18:29:22.303Z,99698.81
2023-05-22T18:31:49.847Z,99688.69
2023-05-22T18:34:17.413Z,99690.84
2023-05-22T18:36:45.037Z,99682.13
2023-05-22T18:39:12.550Z,99683.25
2023-05-22T18:41:40.085Z,99686.56
2023-05-22T18:44:08.899Z,99686.03
2023-05-22T18:46:36.451Z,99684.22
2023-05-22T18:49:04.919Z,99676.28
2023-05-22T18:51:32.666Z,99685.19
2023-05-22T18:54:00.210Z,99690.09
2023-05-22T18:56:27.769Z,99681.63
2023-05-22T18:58:55.520Z,99682.25
2023-05-22T19:01:24.377Z,99683.34
2023-05-22T19:03:51.956Z,99685.66
2023-05-22T19:06:19.813Z,99692.31
2023-05-22T19:08:47.334Z,99699.56
2023-05-22T19:11:14.837Z,99698.72
2023-05-22T19:13:42.921Z,99701.97
2023-05-22T19:16:10.476Z,99717.75
2023-05-22T19:18:39.358Z,99715.03
2023-05-22T19:21:07.053Z,99711.50
2023-05-22T19:23:34.602Z,99718.63
2023-05-22T19:26:02.160Z,99719.63
2023-05-22T19:28:31.503Z,99722.75
2023-05-22T19:31:00.052Z,99724.41
2023-05-22T19:33:27.716Z,99724.78
2023-05-22T19:35:56.599Z,99730.44
2023-05-22T19:38:24.176Z,99733.84
2023-05-22T19:40:51.704Z,99737.50
2023-05-22T19:43:19.383Z,99741.41
2023-05-22T19:45:47.133Z,99758.91
2023-05-22T19:48:14.936Z,99782.06
2023-05-22T19:50:42.863Z,99808.97
2023-05-22T19:53:11.840Z,99819.44
2023-05-22T19:55:39.381Z,99826.75
2023-05-22T19:58:06.953Z,99830.13
2023-05-22T20:00:35.709Z,99835.25
2023-05-22T20:03:03.420Z,99845.03
2023-05-22T20:05:30.986Z,99851.53
2023-05-22T20:07:58.893Z,99858.66
2023-05-22T20:10:27.726Z,99882.03
2023-05-22T20:12:55.708Z,99894.19
2023-05-22T20:15:24.799Z,99896.69
2023-05-22T20:17:53.506Z,99916.56
2023-05-22T20:20:21.256Z,99921.00
2023-05-22T20:22:48.907Z,99919.72
2023-05-22T20:25:17.231Z,99919.88
2023-05-22T20:27:46.104Z,99918.69
2023-05-22T20:30:14.400Z,99916.03
2023-05-22T20:32:42.647Z,99903.28
2023-05-22T20:35:10.816Z,99910.97
2023-05-22T20:37:38.620Z,99917.16
2023-05-22T20:40:09.169Z,99910.03
2023-05-22T20:42:37.415Z,99925.03
2023-05-22T20:45:07.463Z,99922.09
2023-05-22T20:47:35.695Z,99928.00
2023-05-22T20:50:03.280Z,99928.88
2023-05-22T20:52:31.211Z,99920.03
2023-05-22T20:54:58.953Z,99919.56
2023-05-22T20:57:26.792Z,99925.59
2023-05-22T20:59:54.942Z,99933.91
2023-05-22T21:02:23.785Z,99941.13
2023-05-22T21:04:51.324Z,99938.06
2023-05-22T21:07:19.552Z,99941.66
2023-05-22T21:09:47.161Z,99933.72
2023-05-22T21:12:14.700Z,99927.16
2023-05-22T21:14:43.731Z,99929.13
2023-05-22T21:17:11.444Z,99932.16
2023-05-22T21:19:40.322Z,99943.97
2023-05-22T21:22:07.903Z,99930.75
2023-05-22T21:24:35.481Z,99926.81
2023-05-22T21:27:02.982Z,99926.22
2023-05-22T21:29:30.511Z,99915.13
2023-05-22T21:31:58.027Z,99905.72
2023-05-22T21:34:25.852Z,99919.53
2023-05-22T21:36:54.685Z,99916.16
2023-05-22T21:39:22.180Z,99912.19
2023-05-22T21:41:50.070Z,99914.03
2023-05-22T21:44:18.466Z,99909.81
2023-05-22T21:46:46.046Z,99911.22
2023-05-22T21:49:13.608Z,99910.72
2023-05-22T21:51:41.307Z,99905.06
2023-05-22T21:54:10.135Z,99909.22
2023-05-22T21:56:38.538Z,99913.16
2023-05-22T21:59:06.068Z,99920.03
2023-05-22T22:01:33.644Z,99919.69
2023-05-22T22:04:01.217Z,99922.94
2023-05-22T22:06:28.885Z,99920.38
2023-05-22T22:08:58.724Z,99916.81
2023-05-22T22:11:27.575Z,99925.78
2023-05-22T22:13:55.088Z,99920.16
2023-05-22T22:16:22.732Z,99917.28
2023-05-22T22:18:51.156Z,99910.72
2023-05-22T22:21:18.696Z,99908.84
2023-05-22T22:23:46.331Z,99911.69
2023-05-22T22:26:14.086Z,99908.84
2023-05-22T22:28:42.929Z,99907.91
2023-05-22T22:31:10.449Z,99902.47
2023-05-22T22:33:38.134Z,99902.06
2023-05-22T22:36:06.129Z,99902.13
2023-05-22T22:38:35.045Z,99902.78
2023-05-22T22:41:03.980Z,99901.34
2023-05-22T22:43:32.248Z,99889.25
2023-05-22T22:46:01.154Z,99888.50
2023-05-22T22:48:28.805Z,99880.38
2023-05-22T22:50:56.406Z,99886.75
2023-05-22T22:53:23.916Z,99884.44
2023-05-22T22:55:55.583Z,99876.28
2023-05-22T22:58:23.522Z,99872.94
2023-05-22T23:00:51.087Z,99864.06
2023-05-22T23:03:20.164Z,99860.03
2023-05-22T23:05:48.031Z,99848.00
2023-05-22T23:08:15.783Z,99847.25
2023-05-22T23:10:43.297Z,99839.81
2023-05-22T23:13:10.904Z,99836.41
2023-05-22T23:15:38.733Z,99838.81
2023-05-22T23:18:06.701Z,99823.53
2023-05-22T23:20:35.668Z,99815.47
2023-05-22T23:23:03.190Z,99814.03
2023-05-22T23:25:30.917Z,99807.75
2023-05-22T23:27:58.417Z,99810.56
2023-05-22T23:30:25.981Z,99803.06
2023-05-22T23:32:53.731Z,99798.50
2023-05-22T23:35:21.320Z,99802.25
2023-05-22T23:37:50.124Z,99793.53
2023-05-22T23:40:17.902Z,99782.38
2023-05-22T23:42:45.572Z,99787.25
2023-05-22T23:45:13.091Z,99783.47
2023-05-22T23:47:40.665Z,99782.66
2023-05-22T23:50:08.949Z,99780.72
2023-05-22T23:52:36.617Z,99781.34
2023-05-22T23:55:06.623Z,99782.66
2023-05-22T23:57:34.387Z,99784.56
